Time;durP1;ratioP1;P1;durP2;ratioP2;P2;SDS_P1;SDS_P2;PMS_P1;PMS_P2;Temp;Humidity;BMP_temperature;BMP_pressure;BME280_temperature;BME280_humidity;BME280_pressure;Samples;Min_cycle;Max_cycle;Signal;HPM_P1;HPM_P2
2022/12/03 00:18:08;;;;;;;11.90;6.57;;;;;;;13.28;100.00;100509.94;4886719;29;20922;-96
2022/12/03 00:28:51;;;;;;;11.13;5.90;;;;;;;13.23;100.00;100496.03;4810451;29;20483;-96
2022/12/03 00:32:30;;;;;;;12.30;5.47;;;;;;;13.13;100.00;100489.06;4785462;29;20457;-96
2022/12/03 01:02:34;;;;;;;;;;;;;;;;;;;;;
2022/12/03 01:17:23;;;;;;;8.93;4.77;;;;;;;13.17;100.00;100439.28;4722510;30;20504;-96
2022/12/03 01:25:06;;;;;;;9.47;5.77;;;;;;;13.25;100.00;100459.09;4742808;30;20437;-96
2022/12/03 01:39:11;;;;;;;11.57;5.23;;;;;;;13.27;100.00;100467.09;4740064;30;20460;-96
2022/12/03 01:45:34;;;;;;;10.10;5.10;;;;;;;13.28;100.00;100452.28;4825038;29;20459;-95
2022/12/03 01:48:02;;;;;;;9.60;4.60;;;;;;;13.36;100.00;100457.53;4810973;29;20575;-95
2022/12/03 01:50:51;;;;;;;9.73;5.10;;;;;;;13.35;100.00;100459.44;4826885;29;20453;-96
2022/12/03 01:53:21;;;;;;;7.20;4.60;;;;;;;13.27;100.00;100434.19;4862234;29;20433;-96
2022/12/03 02:04:23;;;;;;;11.50;5.53;;;;;;;13.24;100.00;100437.34;4881088;29;20402;-96
2022/12/03 02:10:54;;;;;;;11.00;5.27;;;;;;;13.29;100.00;100437.50;4881422;29;20446;-96
2022/12/03 02:15:06;;;;;;;9.10;4.80;;;;;;;13.33;100.00;100445.09;4836335;29;20463;-96
2022/12/03 02:48:05;;;;;;;12.00;4.80;;;;;;;13.30;100.00;100417.25;4759208;30;20531;-94
2022/12/03 02:50:36;;;;;;;21.13;5.30;;;;;;;13.27;100.00;100412.22;4754992;30;20455;-94
2022/12/03 02:53:09;;;;;;;10.47;5.23;;;;;;;13.32;100.00;100417.88;4769048;30;20456;-94
2022/12/03 02:55:39;;;;;;;14.20;5.87;;;;;;;13.33;100.00;100416.81;4755882;30;20479;-94
2022/12/03 03:01:55;;;;;;;9.30;6.60;;;;;;;13.36;100.00;100410.88;4862065;29;20606;-94
2022/12/03 03:04:35;;;;;;;11.03;6.37;;;;;;;13.37;100.00;100413.41;4876283;29;20455;-95
2022/12/03 03:10:23;;;;;;;13.43;5.23;;;;;;;13.32;100.00;100393.16;4865199;29;20459;-94
2022/12/03 03:20:39;;;;;;;11.70;5.30;;;;;;;13.40;100.00;100406.66;4876435;29;20602;-94
2022/12/03 03:27:23;;;;;;;15.03;5.70;;;;;;;13.38;100.00;100408.75;4861945;29;20490;-94
2022/12/03 03:35:06;;;;;;;15.13;8.70;;;;;;;13.31;100.00;100396.97;4867388;29;20442;-95
2022/12/03 03:49:49;;;;;;;12.10;5.73;;;;;;;13.15;100.00;100381.88;4801923;29;20444;-94
2022/12/03 04:01:39;;;;;;;12.60;5.40;;;;;;;13.21;100.00;100385.66;4702252;30;20541;-94
2022/12/03 04:09:16;;;;;;;;;;;;;;;;;;;;;
2022/12/03 04:29:34;;;;;;;14.90;7.77;;;;;;;13.03;100.00;100353.44;4759139;30;20521;-94
2022/12/03 04:42:56;;;;;;;15.80;5.77;;;;;;;12.94;100.00;100363.78;4804568;29;20785;-94
2022/12/03 04:49:04;;;;;;;18.57;6.80;;;;;;;12.74;100.00;100344.69;4863806;29;20454;-94
2022/12/03 04:55:50;;;;;;;;;;;;;;;;;;;;;
2022/12/03 05:07:07;;;;;;;19.33;9.53;;;;;;;12.55;100.00;100358.47;4884136;29;20438;-95
2022/12/03 05:13:37;;;;;;;11.00;6.40;;;;;;;12.38;100.00;100337.03;4883393;29;20421;-94
2022/12/03 05:16:36;;;;;;;13.23;6.80;;;;;;;12.43;100.00;100350.09;4857144;29;20994;-94
2022/12/03 05:19:12;;;;;;;17.57;8.40;;;;;;;12.34;100.00;100340.41;4864725;29;20475;-96
2022/12/03 05:25:47;;;;;;;11.50;6.40;;;;;;;12.32;100.00;100353.47;4834031;29;20521;-94
2022/12/03 05:32:01;;;;;;;17.03;9.13;;;;;;;12.12;100.00;100331.66;4839861;29;20503;-93
2022/12/03 05:34:29;;;;;;;13.67;8.27;;;;;;;12.08;100.00;100342.19;4803808;29;20438;-93
2022/12/03 05:37:05;;;;;;;18.33;6.60;;;;;;;12.05;100.00;100350.81;4798796;29;20496;-95
2022/12/03 05:44:31;;;;;;;6.30;3.73;;;;;;;11.92;100.00;100360.97;4826964;29;20428;-96
2022/12/03 05:59:13;;;;;;;4.60;2.90;;;;;;;11.62;100.00;100375.03;4831066;29;20435;-96
2022/12/03 06:01:44;;;;;;;6.03;3.53;;;;;;;11.51;100.00;100356.50;4878562;29;20475;-96
2022/12/03 06:04:56;;;;;;;14.60;7.67;;;;;;;11.60;100.00;100379.88;4824915;29;20462;-96
2022/12/03 06:23:11;;;;;;;21.50;16.97;;;;;;;11.30;100.00;100382.16;4778630;30;20463;-96
2022/12/03 06:25:57;;;;;;;25.00;20.20;;;;;;;11.22;100.00;100378.75;4758312;30;20448;-95
2022/12/03 06:28:25;;;;;;;21.57;17.10;;;;;;;11.18;100.00;100372.84;4742703;30;20484;-95
2022/12/03 06:30:56;;;;;;;15.27;9.47;;;;;;;11.28;100.00;100391.63;4763799;29;20470;-96
2022/12/03 06:33:36;;;;;;;11.00;7.90;;;;;;;11.37;100.00;100402.13;4758232;29;20460;-96
2022/12/03 06:36:15;;;;;;;11.90;7.07;;;;;;;11.38;100.00;100403.84;4771218;30;20504;-95
2022/12/03 06:38:51;;;;;;;8.20;5.73;;;;;;;11.28;100.00;100377.94;4773311;30;20501;-96
2022/12/03 06:41:34;;;;;;;10.17;5.23;;;;;;;11.30;100.00;100376.69;4768187;30;20454;-95
2022/12/03 06:44:08;;;;;;;5.97;3.77;;;;;;;11.41;100.00;100391.63;4803233;29;20479;-96
2022/12/03 06:46:47;;;;;;;7.40;3.53;;;;;;;11.38;100.00;100397.50;4798017;29;20536;-96
2022/12/03 06:49:46;;;;;;;6.37;3.80;;;;;;;11.35;100.00;100395.22;4797962;29;20825;-95
2022/12/03 06:52:21;;;;;;;14.10;4.90;;;;;;;11.30;100.00;100398.56;4789322;29;20459;-96
2022/12/03 06:54:49;;;;;;;10.20;5.60;;;;;;;11.28;100.00;100383.41;4795904;29;20459;-95
2022/12/03 06:57:21;;;;;;;11.93;5.77;;;;;;;11.44;100.00;100404.91;4830553;29;20452;-96
2022/12/03 06:59:56;;;;;;;11.70;5.23;;;;;;;11.35;100.00;100378.81;4870308;29;20455;-96
2022/12/03 07:02:48;;;;;;;21.27;12.60;;;;;;;11.51;100.00;100378.41;4859899;29;20450;-96
2022/12/03 07:16:53;;;;;;;23.53;9.50;;;;;;;11.70;100.00;100401.38;4893516;29;20486;-96
2022/12/03 07:19:41;;;;;;;14.83;7.50;;;;;;;11.71;100.00;100401.16;4889934;29;20456;-95
2022/12/03 07:22:29;;;;;;;18.63;7.77;;;;;;;11.65;100.00;100382.81;4881335;29;20446;-96
2022/12/03 07:25:11;;;;;;;49.77;22.13;;;;;;;11.75;100.00;100377.75;4899507;29;20532;-95
2022/12/03 07:27:52;;;;;;;37.67;20.90;;;;;;;11.87;100.00;100386.22;4884713;29;20501;-96
2022/12/03 07:30:36;;;;;;;47.10;22.20;;;;;;;11.90;100.00;100387.72;4899736;29;20453;-96
2022/12/03 07:33:24;;;;;;;29.20;14.10;;;;;;;12.00;100.00;100407.28;4887844;29;20454;-96
2022/12/03 07:36:00;;;;;;;28.70;13.10;;;;;;;11.92;100.00;100391.09;4886832;29;20453;-95
2022/12/03 07:38:41;;;;;;;16.13;8.70;;;;;;;12.04;100.00;100411.28;4871026;29;20860;-95
2022/12/03 07:41:12;;;;;;;14.73;8.87;;;;;;;12.08;100.00;100415.28;4884243;29;20477;-95
2022/12/03 07:43:49;;;;;;;18.10;9.47;;;;;;;12.15;100.00;100415.28;4887175;29;20456;-96
2022/12/03 07:46:20;;;;;;;14.77;7.80;;;;;;;12.11;100.00;100409.41;4903509;29;20461;-94
2022/12/03 07:49:22;;;;;;;13.33;6.87;;;;;;;12.24;100.00;100412.13;4854871;29;21008;-95
2022/12/03 07:52:10;;;;;;;24.00;12.43;;;;;;;12.31;100.00;100414.84;4886018;29;20445;-96
2022/12/03 07:55:07;;;;;;;21.77;12.53;;;;;;;12.38;100.00;100419.25;4886323;29;20459;-94
2022/12/03 07:57:37;;;;;;;19.53;10.90;;;;;;;12.38;100.00;100397.31;4865484;29;20502;-96
2022/12/03 08:00:30;;;;;;;25.03;14.50;;;;;;;12.56;100.00;100415.00;4869509;29;20457;-96
2022/12/03 08:03:04;;;;;;;19.13;9.03;;;;;;;12.52;100.00;100394.53;4898987;29;20464;-96
2022/12/03 08:05:36;;;;;;;15.63;5.30;;;;;;;12.64;100.00;100406.53;4864546;29;20483;-96
2022/12/03 08:08:07;;;;;;;12.90;5.97;;;;;;;12.62;100.00;100397.69;4872511;29;20481;-96
2022/12/03 08:10:50;;;;;;;9.97;4.87;;;;;;;12.78;100.00;100417.25;4866696;29;20452;-96
2022/12/03 08:13:20;;;;;;;25.43;6.03;;;;;;;12.71;100.00;100407.34;4851620;29;20471;-95
2022/12/03 08:15:59;;;;;;;7.60;5.20;;;;;;;12.83;100.00;100416.59;4835947;29;20478;-95
2022/12/03 08:18:42;;;;;;;10.60;5.20;;;;;;;12.87;100.00;100428.84;4853548;29;20455;-96
2022/12/03 08:21:46;;;;;;;12.03;4.93;;;;;;;12.77;100.00;100406.50;4869383;29;20510;-96
2022/12/03 08:24:36;;;;;;;10.47;4.90;;;;;;;12.84;100.00;100412.81;4862510;29;20446;-96
2022/12/03 08:27:17;;;;;;;12.50;5.23;;;;;;;12.96;100.00;100433.00;4845838;29;20455;-96
2022/12/03 08:29:57;;;;;;;12.20;5.63;;;;;;;12.99;100.00;100438.06;4853063;29;20493;-95
2022/12/03 08:32:36;;;;;;;10.70;5.70;;;;;;;12.95;100.00;100425.81;4877856;29;20516;-95
2022/12/03 08:35:27;;;;;;;12.47;6.20;;;;;;;12.99;100.00;100418.84;4854512;29;20506;-94
2022/12/03 08:38:01;;;;;;;10.00;3.70;;;;;;;13.01;100.00;100418.63;4858589;29;20451;-95
2022/12/03 08:40:43;;;;;;;11.47;4.97;;;;;;;13.19;100.00;100438.00;4857206;29;20493;-95
2022/12/03 08:43:25;;;;;;;14.33;4.70;;;;;;;13.21;100.00;100437.78;4850559;29;20460;-95
2022/12/03 08:46:20;;;;;;;11.13;4.83;;;;;;;13.23;100.00;100428.28;4836840;29;20505;-96
2022/12/03 08:48:58;;;;;;;13.03;5.47;;;;;;;13.21;100.00;100413.09;4854880;29;20474;-96
2022/12/03 08:51:29;;;;;;;9.93;4.90;;;;;;;13.27;100.00;100417.72;4853441;29;20494;-96
2022/12/03 08:54:12;;;;;;;12.83;4.70;;;;;;;13.36;100.00;100421.88;4853515;29;20455;-96
2022/12/03 08:57:50;;;;;;;;;;;;;;;;;;;;;
2022/12/03 09:01:03;;;;;;;10.03;3.93;;;;;;;13.53;100.00;100428.50;4880045;29;20510;-96
2022/12/03 09:07:36;;;;;;;10.73;4.50;;;;;;;13.68;100.00;100429.03;4878203;29;20474;-92
2022/12/03 09:10:06;;;;;;;20.73;4.50;;;;;;;13.77;100.00;100433.22;4855930;29;20487;-95
2022/12/03 09:12:41;;;;;;;15.10;4.43;;;;;;;13.89;100.00;100449.81;4832298;29;20463;-94
2022/12/03 09:15:11;;;;;;;7.40;4.10;;;;;;;13.90;100.00;100445.16;4840547;29;20503;-95
2022/12/03 09:21:19;;;;;;;8.57;3.93;;;;;;;14.08;100.00;100453.47;4870801;29;20443;-94
2022/12/03 10:13:58;;;;;;;17.10;11.40;;;;;;;15.24;100.00;100469.22;5510539;22;15491765;-95
2022/12/03 10:16:52;;;;;;;17.73;9.13;;;;;;;15.29;100.00;100472.13;6052719;23;20181;-94
2022/12/03 10:19:30;;;;;;;21.50;9.87;;;;;;;15.30;100.00;100465.53;6027525;23;20414;-89
2022/12/03 10:22:00;;;;;;;11.57;6.63;;;;;;;15.40;100.00;100468.56;6027342;23;20410;-90
2022/12/03 10:24:52;;;;;;;13.67;5.60;;;;;;;15.46;100.00;100468.50;6004376;23;20411;-90
2022/12/03 10:35:14;;;;;;;7.03;3.23;;;;;;;15.71;100.00;100465.63;5969282;23;20930;-91
2022/12/03 10:42:30;;;;;;;;;;;;;;;;;;;;;
2022/12/03 10:45:44;;;;;;;6.07;3.40;;;;;;;16.06;100.00;100462.13;5956928;24;20475;-93
2022/12/03 10:48:27;;;;;;;8.73;3.10;;;;;;;16.23;100.00;100461.19;5933602;24;20443;-93
2022/12/03 10:51:03;;;;;;;9.53;3.60;;;;;;;16.27;100.00;100438.66;5910332;24;20411;-93
2022/12/03 10:53:44;;;;;;;9.20;3.47;;;;;;;16.42;100.00;100433.50;6025296;23;20463;-95
2022/12/03 11:03:46;;;;;;;10.90;3.60;;;;;;;16.64;100.00;100433.78;6070374;23;20781;-94
2022/12/03 11:06:25;;;;;;;11.40;4.10;;;;;;;16.69;100.00;100444.94;5999588;23;20419;-94
2022/12/03 11:09:24;;;;;;;13.70;4.10;;;;;;;16.69;100.00;100436.66;6022351;23;20542;-93
2022/12/03 11:12:16;;;;;;;8.00;3.20;;;;;;;16.57;100.00;100418.13;6107239;23;20432;-94
2022/12/03 11:15:14;;;;;;;10.27;3.10;;;;;;;16.72;100.00;100444.47;6112729;23;20895;-94
2022/12/03 11:18:02;;;;;;;11.03;3.37;;;;;;;16.77;100.00;100442.63;6132873;23;20492;-94
2022/12/03 11:21:20;;;;;;;8.57;3.10;;;;;;;16.82;100.00;100439.16;6132811;23;20946;-93
2022/12/03 11:24:17;;;;;;;10.33;2.77;;;;;;;16.83;100.00;100438.06;6156304;23;20413;-93
2022/12/03 11:30:47;;;;;;;5.20;2.77;;;;;;;16.90;100.00;100428.59;6158298;23;20377;-94
2022/12/03 11:33:54;;;;;;;11.40;3.70;;;;;;;16.96;100.00;100431.44;6156418;23;20408;-94
2022/12/03 11:40:36;;;;;;;9.47;3.23;;;;;;;17.29;100.00;100403.13;6157996;23;20371;-92
2022/12/03 11:46:46;;;;;;;7.77;3.00;;;;;;;17.95;100.00;100406.03;6068200;23;20382;-92
2022/12/03 11:49:35;;;;;;;8.73;3.83;;;;;;;17.85;100.00;100414.16;6020782;23;20451;-92
2022/12/03 11:56:24;;;;;;;7.83;3.40;;;;;;;17.27;100.00;100371.06;6069389;23;20390;-92
2022/12/03 12:02:48;;;;;;;10.80;3.17;;;;;;;17.17;100.00;100387.44;6067843;23;20384;-90
2022/12/03 12:05:57;;;;;;;9.03;3.10;;;;;;;17.11;100.00;100391.19;6022710;23;20400;-90
2022/12/03 12:08:26;;;;;;;6.40;3.50;;;;;;;16.91;100.00;100372.28;6042895;23;20454;-88
2022/12/03 12:11:24;;;;;;;11.70;3.90;;;;;;;16.93;100.00;100386.66;5997770;23;20418;-89
2022/12/03 12:14:17;;;;;;;8.23;3.93;;;;;;;16.78;100.00;100368.94;6022066;23;20534;-93
2022/12/03 12:33:15;;;;;;;8.67;3.80;;;;;;;16.41;100.00;100374.72;6096173;23;20366;-92
2022/12/03 12:35:44;;;;;;;10.90;4.90;;;;;;;16.27;100.00;100364.19;6071776;23;20406;-90
2022/12/03 12:38:18;;;;;;;9.90;4.93;;;;;;;16.12;100.00;100349.00;6024516;23;20415;-90
2022/12/03 12:40:54;;;;;;;14.13;4.80;;;;;;;16.17;100.00;100359.28;6026238;23;20403;-90
2022/12/03 12:43:23;;;;;;;15.23;6.10;;;;;;;16.10;100.00;100344.78;6048512;23;20415;-91
2022/12/03 12:46:14;;;;;;;20.17;6.13;;;;;;;16.23;100.00;100358.31;6025262;23;20392;-92
2022/12/03 12:49:10;;;;;;;10.87;5.60;;;;;;;16.14;100.00;100346.84;6075767;23;20439;-90
2022/12/03 12:51:43;;;;;;;21.90;5.63;;;;;;;16.24;100.00;100354.50;6025259;23;20411;-89
2022/12/03 12:54:13;;;;;;;14.60;4.97;;;;;;;16.21;100.00;100360.47;6072104;23;20406;-91
2022/12/03 12:56:48;;;;;;;14.93;6.00;;;;;;;16.23;100.00;100355.56;6025196;23;20393;-90
2022/12/03 12:59:21;;;;;;;12.33;5.53;;;;;;;16.18;100.00;100356.28;6071537;23;20413;-89
2022/12/03 13:01:56;;;;;;;11.53;6.00;;;;;;;16.12;100.00;100361.94;6123581;23;20720;-89
2022/12/03 13:04:25;;;;;;;16.63;6.80;;;;;;;16.08;100.00;100350.53;6131677;23;20385;-89
2022/12/03 13:06:58;;;;;;;13.80;5.17;;;;;;;16.01;100.00;100343.47;6107022;23;20688;-89
2022/12/03 13:09:28;;;;;;;11.77;5.00;;;;;;;16.00;100.00;100352.81;6106895;23;20479;-89
2022/12/03 13:12:02;;;;;;;13.60;5.07;;;;;;;15.91;100.00;100359.75;6107559;23;20763;-89
2022/12/03 13:14:38;;;;;;;13.40;4.97;;;;;;;15.81;100.00;100366.69;6107888;23;20429;-90
2022/12/03 13:17:31;;;;;;;6.47;2.50;;;;;;;15.68;100.00;100361.41;6154842;23;20740;-91
2022/12/03 13:20:16;;;;;;;7.80;2.40;;;;;;;15.51;100.00;100368.63;6130927;23;20480;-90
2022/12/03 13:22:55;;;;;;;7.80;1.60;;;;;;;15.42;100.00;100372.78;6105840;23;20408;-90
2022/12/03 13:25:35;;;;;;;4.77;1.70;;;;;;;15.29;100.00;100373.00;6106952;23;20488;-89
2022/12/03 13:28:25;;;;;;;6.00;2.13;;;;;;;15.19;100.00;100365.31;6115208;23;20433;-90
2022/12/03 13:30:53;;;;;;;4.60;1.17;;;;;;;15.10;100.00;100362.03;6107322;23;20472;-92
2022/12/03 13:33:32;;;;;;;8.13;2.60;;;;;;;15.09;100.00;100365.84;6106934;23;20775;-89
2022/12/03 13:36:11;;;;;;;5.80;2.57;;;;;;;15.02;100.00;100359.59;6130728;23;20495;-88
2022/12/03 13:38:41;;;;;;;6.30;1.60;;;;;;;15.03;100.00;100353.00;6131161;23;20412;-89
2022/12/03 13:42:37;;;;;;;7.50;1.77;;;;;;;14.99;100.00;100357.34;6129153;23;20409;-93
2022/12/03 13:44:31;;;;;;;4.03;1.60;;;;;;;14.93;100.00;100346.41;6135669;23;20390;-89
2022/12/03 13:47:51;;;;;;;7.63;2.10;;;;;;;15.00;100.00;100350.75;6127327;23;20407;-91
2022/12/03 13:50:40;;;;;;;6.13;2.00;;;;;;;14.97;100.00;100337.47;6156626;23;20409;-90
2022/12/03 13:53:32;;;;;;;4.43;2.03;;;;;;;15.00;100.00;100334.25;6131302;23;20433;-90
2022/12/03 13:56:40;;;;;;;8.60;2.50;;;;;;;15.23;100.00;100340.88;6107479;23;20419;-90
2022/12/03 13:59:17;;;;;;;7.53;1.90;;;;;;;15.42;100.00;100334.22;6155571;23;20892;-90
2022/12/03 14:01:51;;;;;;;7.13;1.77;;;;;;;15.53;100.00;100330.69;6132688;23;20934;-90
2022/12/03 14:04:20;;;;;;;2.97;0.93;;;;;;;15.67;100.00;100323.91;6107076;23;20389;-90
2022/12/03 14:06:48;;;;;;;5.63;1.37;;;;;;;15.79;100.00;100324.75;6107177;23;20389;-90
2022/12/03 14:09:25;;;;;;;5.63;1.53;;;;;;;15.88;100.00;100330.75;6107500;23;20436;-90
2022/12/03 14:14:53;;;;;;;6.13;1.37;;;;;;;15.96;100.00;100329.56;6135195;23;20484;-90
2022/12/03 14:17:20;;;;;;;10.87;1.87;;;;;;;16.01;100.00;100321.41;6157323;23;20388;-90
2022/12/03 14:20:07;;;;;;;4.70;0.93;;;;;;;16.09;100.00;100324.66;6132738;23;20754;-90
2022/12/03 14:22:39;;;;;;;6.57;1.20;;;;;;;16.20;100.00;100325.72;6132887;23;20787;-89
2022/12/03 14:25:09;;;;;;;3.40;1.10;;;;;;;16.27;100.00;100331.94;6156876;23;20408;-90
2022/12/03 14:27:43;;;;;;;2.43;0.57;;;;;;;16.30;100.00;100314.94;6109085;23;20719;-89
2022/12/03 14:30:15;;;;;;;2.50;1.20;;;;;;;16.30;100.00;100320.44;6132547;23;20437;-90
2022/12/03 14:32:45;;;;;;;4.60;1.60;;;;;;;16.35;100.00;100328.84;6131928;23;20403;-89
2022/12/03 14:35:20;;;;;;;7.73;1.97;;;;;;;16.27;100.00;100325.59;6108202;23;20408;-89
2022/12/03 14:37:48;;;;;;;3.30;1.00;;;;;;;16.18;100.00;100323.19;6108498;23;20907;-89
2022/12/03 14:40:18;;;;;;;3.20;0.73;;;;;;;16.12;100.00;100324.19;6108315;23;20436;-89
2022/12/03 14:42:54;;;;;;;6.60;1.43;;;;;;;16.10;100.00;100331.84;6109165;23;20970;-90
2022/12/03 14:45:26;;;;;;;5.20;1.30;;;;;;;16.13;100.00;100314.81;6132601;23;20394;-90
2022/12/03 14:47:53;;;;;;;3.25;1.20;;;;;;;16.22;100.00;100318.88;6109297;23;20397;-90
2022/12/03 14:50:22;;;;;;;3.60;1.00;;;;;;;16.27;100.00;100306.28;6131500;23;20420;-89
2022/12/03 14:52:51;;;;;;;3.83;0.90;;;;;;;16.34;100.00;100302.34;6132830;23;20405;-90
2022/12/03 14:55:18;;;;;;;3.20;1.00;;;;;;;16.35;100.00;100295.75;6132488;23;20451;-89
2022/12/03 14:57:46;;;;;;;10.13;2.20;;;;;;;16.49;100.00;100313.69;6108444;23;20415;-89
2022/12/03 15:00:16;;;;;;;4.60;2.07;;;;;;;16.52;100.00;100313.22;6108897;23;20392;-89
2022/12/03 15:02:44;;;;;;;7.67;2.83;;;;;;;16.57;100.00;100305.00;6131430;23;20407;-89
2022/12/03 15:05:16;;;;;;;13.73;2.00;;;;;;;16.77;100.00;100306.53;6107989;23;20938;-89
2022/12/03 15:08:00;;;;;;;7.53;1.80;;;;;;;16.98;100.00;100308.63;6133831;23;20385;-89
2022/12/03 15:10:28;;;;;;;10.13;1.60;;;;;;;17.02;100.00;100290.50;6107892;23;20408;-89
2022/12/03 15:12:56;;;;;;;8.20;2.10;;;;;;;17.21;100.00;100299.41;6107829;23;20927;-90
2022/12/03 15:15:24;;;;;;;5.47;1.57;;;;;;;17.37;100.00;100293.06;6108077;23;20407;-89
2022/12/03 15:17:53;;;;;;;8.47;2.00;;;;;;;17.56;100.00;100304.72;6132771;23;20385;-89
2022/12/03 15:20:28;;;;;;;9.40;2.47;;;;;;;17.57;100.00;100287.88;6131805;23;20419;-90
2022/12/03 15:22:56;;;;;;;9.03;1.67;;;;;;;17.59;100.00;100287.63;6108289;23;20384;-90
2022/12/03 15:25:24;;;;;;;5.57;1.30;;;;;;;17.52;100.00;100292.47;6132503;23;20403;-90
2022/12/03 15:27:52;;;;;;;8.50;1.20;;;;;;;17.41;100.00;100298.94;6107647;23;20413;-90
2022/12/03 15:30:20;;;;;;;7.23;1.70;;;;;;;17.25;100.00;100295.06;6107679;23;20444;-89
2022/12/03 15:32:50;;;;;;;4.67;1.67;;;;;;;17.17;100.00;100304.56;6134698;23;20472;-89
2022/12/03 15:35:20;;;;;;;5.60;1.20;;;;;;;17.14;100.00;100299.53;6109707;23;20780;-89
2022/12/03 15:37:49;;;;;;;8.73;2.23;;;;;;;17.11;100.00;100302.00;6132529;23;20408;-90
2022/12/03 15:40:23;;;;;;;12.20;4.83;;;;;;;17.09;100.00;100299.47;6132702;23;20923;-90
2022/12/03 15:42:52;;;;;;;40.47;20.10;;;;;;;17.10;100.00;100303.91;6132023;23;20409;-89
2022/12/03 15:45:22;;;;;;;8.93;4.23;;;;;;;17.05;100.00;100312.09;6107681;23;20428;-89
2022/12/03 15:47:50;;;;;;;10.50;5.20;;;;;;;16.99;100.00;100317.75;6108268;23;20865;-90
2022/12/03 15:50:18;;;;;;;4.43;1.03;;;;;;;16.92;100.00;100317.91;6131552;23;20862;-89
2022/12/03 15:52:48;;;;;;;8.70;1.23;;;;;;;16.81;100.00;100307.75;6108111;23;20460;-89
2022/12/03 15:55:23;;;;;;;4.00;1.37;;;;;;;16.77;100.00;100309.31;6131333;23;20405;-90
2022/12/03 15:57:57;;;;;;;4.80;1.20;;;;;;;16.61;100.00;100321.09;6131757;23;20408;-90
2022/12/03 16:00:27;;;;;;;5.23;1.50;;;;;;;16.43;100.00;100316.56;6132286;23;20902;-89
2022/12/03 16:02:55;;;;;;;4.37;1.10;;;;;;;16.28;100.00;100324.50;6107744;23;20484;-90
2022/12/03 16:05:22;;;;;;;2.17;0.87;;;;;;;16.18;100.00;100331.47;6131323;23;20432;-89
2022/12/03 16:07:50;;;;;;;9.47;1.03;;;;;;;16.08;100.00;100335.91;6107602;23;20464;-89
2022/12/03 16:10:24;;;;;;;5.80;1.03;;;;;;;16.02;100.00;100331.34;6107686;23;20440;-89
2022/12/03 16:12:52;;;;;;;5.00;1.60;;;;;;;15.86;100.00;100325.47;6107187;23;20428;-90
2022/12/03 16:15:25;;;;;;;5.00;1.73;;;;;;;15.82;100.00;100338.06;6106801;23;20405;-89
2022/12/03 16:17:53;;;;;;;8.67;1.63;;;;;;;15.77;100.00;100343.47;6155826;23;20392;-90
2022/12/03 16:20:23;;;;;;;8.33;1.67;;;;;;;15.65;100.00;100334.31;6108216;23;20824;-90
2022/12/03 16:22:51;;;;;;;4.33;1.50;;;;;;;15.55;100.00;100334.03;6107043;23;20407;-89
2022/12/03 16:25:18;;;;;;;10.23;1.77;;;;;;;15.54;100.00;100343.38;6131114;23;20415;-90
2022/12/03 16:27:50;;;;;;;4.90;1.90;;;;;;;15.55;100.00;100345.06;6131379;23;20903;-89
2022/12/03 16:30:33;;;;;;;5.03;1.47;;;;;;;15.50;100.00;100348.53;6131743;23;20449;-89
2022/12/03 16:33:02;;;;;;;6.17;1.43;;;;;;;15.43;100.00;100347.78;6131963;23;20438;-89
2022/12/03 16:35:31;;;;;;;6.30;1.10;;;;;;;15.38;100.00;100344.06;6107465;23;20397;-90
2022/12/03 16:38:11;;;;;;;5.17;1.17;;;;;;;15.37;100.00;100345.13;6107742;23;20405;-90
2022/12/03 16:40:45;;;;;;;12.37;2.00;;;;;;;15.31;100.00;100337.81;6131522;23;20409;-89
2022/12/03 16:43:13;;;;;;;8.60;1.20;;;;;;;15.33;100.00;100347.53;6107334;23;20403;-89
2022/12/03 16:46:08;;;;;;;5.37;2.30;;;;;;;15.25;100.00;100339.56;6107789;23;20453;-90
2022/12/03 16:48:39;;;;;;;5.67;1.40;;;;;;;15.25;100.00;100339.56;6115746;23;20389;-89
2022/12/03 16:51:08;;;;;;;7.27;1.70;;;;;;;15.19;100.00;100329.53;6131241;23;20388;-89
2022/12/03 16:53:37;;;;;;;8.83;1.70;;;;;;;15.18;100.00;100339.69;6107753;23;20396;-89
2022/12/03 16:56:12;;;;;;;6.00;1.20;;;;;;;15.10;100.00;100337.25;6107724;23;20412;-89
2022/12/03 16:58:40;;;;;;;6.07;1.60;;;;;;;15.10;100.00;100337.25;6107333;23;20388;-89
2022/12/03 17:01:09;;;;;;;11.30;1.60;;;;;;;14.97;100.00;100318.19;6107156;23;20409;-90
2022/12/03 17:03:38;;;;;;;5.50;1.53;;;;;;;14.97;100.00;100322.84;6131148;23;20496;-89
2022/12/03 17:06:08;;;;;;;5.73;1.30;;;;;;;14.90;100.00;100322.09;6107258;23;20385;-89
2022/12/03 17:08:41;;;;;;;7.77;1.57;;;;;;;14.90;100.00;100324.84;6107099;23;20409;-90
2022/12/03 17:11:25;;;;;;;6.80;1.10;;;;;;;14.79;100.00;100307.22;6109861;23;20416;-89
2022/12/03 17:13:54;;;;;;;4.27;0.90;;;;;;;14.76;100.00;100315.94;6174871;23;20450;-89
2022/12/03 17:16:24;;;;;;;7.73;1.90;;;;;;;14.77;100.00;100331.38;6112360;23;20415;-89
2022/12/03 17:18:58;;;;;;;12.73;1.20;;;;;;;14.73;100.00;100319.16;6112309;23;20389;-89
2022/12/03 17:21:26;;;;;;;4.83;1.47;;;;;;;14.74;100.00;100338.16;6111917;23;20423;-89
2022/12/03 17:24:00;;;;;;;3.20;1.10;;;;;;;14.71;100.00;100337.78;6116183;23;20450;-89
2022/12/03 17:26:30;;;;;;;6.70;1.40;;;;;;;14.67;100.00;100333.81;6136184;23;20414;-89
2022/12/03 17:29:04;;;;;;;8.27;2.40;;;;;;;14.68;100.00;100338.25;6136148;23;20435;-88
2022/12/03 17:31:32;;;;;;;9.20;1.70;;;;;;;14.63;100.00;100338.94;6136016;23;20766;-89
2022/12/03 17:34:09;;;;;;;6.33;2.20;;;;;;;14.63;100.00;100340.84;6116850;23;20408;-89
2022/12/03 17:36:39;;;;;;;6.53;1.40;;;;;;;14.59;100.00;100340.50;6112045;23;20729;-89
2022/12/03 18:16:43;;;;;;;12.37;5.90;;;;;;;14.27;100.00;100348.00;6128275;23;20423;-90
2022/12/03 18:19:17;;;;;;;23.00;8.40;;;;;;;14.29;100.00;100356.00;6080011;23;20897;-91
2022/12/03 18:21:52;;;;;;;14.33;8.03;;;;;;;14.29;100.00;100353.25;6104295;23;20448;-90
2022/12/03 18:24:27;;;;;;;11.40;6.07;;;;;;;14.30;100.00;100366.78;6080441;23;20443;-91
2022/12/03 18:27:04;;;;;;;20.33;5.00;;;;;;;14.29;100.00;100367.00;6080644;23;20390;-91
2022/12/03 18:29:35;;;;;;;11.87;3.70;;;;;;;14.24;100.00;100369.63;6127705;23;20520;-90
2022/12/03 18:32:03;;;;;;;10.03;3.10;;;;;;;14.22;100.00;100380.00;6127315;23;20908;-91
2022/12/03 18:34:32;;;;;;;11.27;6.00;;;;;;;14.26;100.00;100389.44;6079884;23;20410;-91
2022/12/03 18:37:31;;;;;;;9.93;6.20;;;;;;;14.28;100.00;100392.81;6079896;23;20393;-90
2022/12/03 18:40:38;;;;;;;31.00;17.37;;;;;;;14.24;100.00;100392.41;6037865;23;20837;-91
2022/12/03 18:43:12;;;;;;;31.83;17.20;;;;;;;14.25;100.00;100385.84;6020579;23;20407;-92
2022/12/03 18:45:50;;;;;;;15.70;7.10;;;;;;;14.23;100.00;100392.69;6015579;23;20404;-91
2022/12/03 18:48:26;;;;;;;13.70;6.17;;;;;;;14.21;100.00;100392.91;5993196;23;20405;-92
2022/12/03 18:51:30;;;;;;;18.67;9.00;;;;;;;14.21;100.00;100383.81;5992776;23;20451;-92
2022/12/03 18:54:13;;;;;;;28.03;13.27;;;;;;;14.19;100.00;100386.78;6011358;23;20415;-91
2022/12/03 18:56:47;;;;;;;33.97;17.33;;;;;;;14.14;100.00;100375.63;5987520;23;20413;-92
2022/12/03 18:59:15;;;;;;;61.97;33.77;;;;;;;14.09;100.00;100369.94;5965253;23;20389;-92
2022/12/03 19:01:42;;;;;;;47.37;23.60;;;;;;;14.16;100.00;100389.97;5942139;23;20909;-92
2022/12/03 19:04:12;;;;;;;66.20;21.60;;;;;;;14.02;100.00;100370.03;5941654;23;20481;-92
2022/12/03 19:06:48;;;;;;;75.70;28.00;;;;;;;14.11;100.00;100389.81;5941539;23;20579;-92
2022/12/03 19:09:51;;;;;;;82.73;30.30;;;;;;;14.08;100.00;100385.59;5987497;23;20469;-92
2022/12/03 19:12:19;;;;;;;57.50;30.23;;;;;;;14.06;100.00;100379.50;6014963;23;20816;-92
2022/12/03 19:14:47;;;;;;;49.53;26.40;;;;;;;13.98;100.00;100366.06;5966701;23;20556;-91
2022/12/03 19:17:38;;;;;;;36.93;18.03;;;;;;;13.98;100.00;100377.03;6048251;23;20475;-92
2022/12/03 19:20:39;;;;;;;30.13;11.60;;;;;;;13.96;100.00;100372.84;6079155;23;20482;-93
2022/12/03 19:23:14;;;;;;;28.33;15.37;;;;;;;13.93;100.00;100373.28;6078323;23;20414;-92